createdAt,value
2023-01-01T00:02:23.238Z,68.75
2023-01-01T00:07:26.181Z,70.75
2023-01-01T00:12:28.927Z,65.75
2023-01-01T00:17:32.982Z,66.00
2023-01-01T00:22:54.052Z,61.00
2023-01-01T00:27:57.699Z,64.75
2023-01-01T00:33:01.884Z,63.75
2023-01-01T00:38:04.703Z,64.75
2023-01-01T00:43:07.498Z,63.25
2023-01-01T00:48:11.621Z,63.00
2023-01-01T00:53:14.855Z,61.25
2023-01-01T00:58:17.862Z,61.00
2023-01-01T01:03:31.252Z,63.25
2023-01-01T01:08:34.930Z,62.00
2023-01-01T01:13:37.895Z,60.50
2023-01-01T01:18:42.042Z,57.00
2023-01-01T01:23:45.805Z,58.00
2023-01-01T01:28:49.933Z,59.75
2023-01-01T01:33:54.493Z,57.25
2023-01-01T01:38:57.381Z,57.00
2023-01-01T01:44:00.769Z,57.00
2023-01-01T01:49:11.021Z,57.25
2023-01-01T01:54:15.909Z,57.00
2023-01-01T01:59:18.973Z,57.25
2023-01-01T02:04:23.119Z,57.00
2023-01-01T02:09:25.880Z,57.00
2023-01-01T02:14:28.782Z,55.00
2023-01-01T02:19:39.897Z,54.00
2023-01-01T02:24:53.134Z,54.75
2023-01-01T02:29:58.693Z,55.25
2023-01-01T02:35:23.875Z,52.25
2023-01-01T02:40:26.761Z,54.00
2023-01-01T02:45:30.890Z,54.75
2023-01-01T02:50:33.777Z,54.75
2023-01-01T02:55:43.110Z,52.00
2023-01-01T03:00:47.585Z,51.25
2023-01-01T03:06:11.622Z,51.00
2023-01-01T03:11:15.638Z,50.50
2023-01-01T03:16:20.976Z,52.00
2023-01-01T03:21:23.732Z,49.00
2023-01-01T03:26:27.443Z,51.25
2023-01-01T03:31:31.605Z,51.75
2023-01-01T03:36:36.376Z,49.00
2023-01-01T03:41:40.796Z,49.50
2023-01-01T03:46:45.150Z,47.75
2023-01-01T03:51:58.133Z,50.25
2023-01-01T03:57:04.824Z,49.00
2023-01-01T04:02:09.738Z,47.50
2023-01-01T04:07:15.940Z,46.50
2023-01-01T04:12:18.847Z,47.00
2023-01-01T04:17:22.978Z,47.75
2023-01-01T04:22:25.757Z,46.75
2023-01-01T04:27:28.568Z,48.75
2023-01-01T04:32:32.696Z,47.75
2023-01-01T04:37:36.375Z,46.00
2023-01-01T04:42:39.250Z,45.00
2023-01-01T04:47:43.670Z,46.75
2023-01-01T04:52:51.136Z,44.67
2023-01-01T04:57:53.908Z,44.00
2023-01-01T05:02:58.195Z,41.67
2023-01-01T05:08:01.178Z,44.00
2023-01-01T05:13:07.789Z,44.67
2023-01-01T05:18:11.890Z,44.00
2023-01-01T05:23:14.664Z,42.33
2023-01-01T05:28:17.505Z,41.00
2023-01-01T05:33:21.680Z,41.00
2023-01-01T05:38:24.515Z,40.00
2023-01-01T05:43:27.277Z,39.00
2023-01-01T05:48:31.574Z,39.33
2023-01-01T05:53:34.616Z,39.33
2023-01-01T05:58:37.407Z,38.00
2023-01-01T06:03:41.748Z,39.00
2023-01-01T06:08:47.780Z,39.00
2023-01-01T06:13:53.226Z,39.33
2023-01-01T06:18:57.410Z,38.00
2023-01-01T06:24:00.681Z,38.67
2023-01-01T06:29:03.772Z,38.67
2023-01-01T06:34:07.905Z,38.00
2023-01-01T06:39:10.697Z,37.00
2023-01-01T06:44:13.502Z,38.33
2023-01-01T06:49:17.581Z,37.00
2023-01-01T06:54:20.328Z,35.67
2023-01-01T06:59:23.148Z,35.00
2023-01-01T07:04:27.321Z,35.25
2023-01-01T07:09:30.394Z,38.00
2023-01-01T07:14:33.176Z,35.75
2023-01-01T07:19:37.302Z,35.25
2023-01-01T07:24:40.173Z,35.00
2023-01-01T07:29:42.970Z,35.00
2023-01-01T07:34:50.681Z,36.00
2023-01-01T07:39:53.873Z,37.25
2023-01-01T07:44:56.654Z,34.50
2023-01-01T07:50:00.973Z,34.25
2023-01-01T07:55:04.835Z,34.25
2023-01-01T08:00:08.661Z,34.50
2023-01-01T08:05:21.177Z,33.75
2023-01-01T08:10:27.246Z,32.75
2023-01-01T08:15:30.129Z,32.50
2023-01-01T08:20:34.372Z,29.50
2023-01-01T08:25:38.340Z,29.00
2023-01-01T08:30:41.061Z,27.25
2023-01-01T08:35:49.003Z,26.00
2023-01-01T08:40:56.553Z,27.00
2023-01-01T08:46:00.581Z,20.20
2023-01-01T08:51:04.907Z,15.00
2023-01-01T08:56:08.861Z,13.00
2023-01-01T09:01:11.717Z,13.80
2023-01-01T09:06:16.046Z,11.60
2023-01-01T09:11:23.244Z,12.80
2023-01-01T09:16:26.306Z,16.00
2023-01-01T09:21:30.457Z,19.40
2023-01-01T09:26:33.259Z,25.60
2023-01-01T09:31:36.195Z,32.25
2023-01-01T09:36:40.375Z,30.75
2023-01-01T09:41:57.916Z,29.40
2023-01-01T09:47:01.271Z,27.00
2023-01-01T09:52:05.678Z,28.25
2023-01-01T09:57:14.795Z,24.40
2023-01-01T10:02:33.252Z,26.25
2023-01-01T10:07:39.264Z,26.00
2023-01-01T10:12:44.795Z,24.80
2023-01-01T10:17:48.219Z,25.60
2023-01-01T10:22:53.923Z,22.00
2023-01-01T10:27:59.899Z,26.00
2023-01-01T10:33:02.857Z,23.40
2023-01-01T10:38:07.067Z,23.60
2023-01-01T10:43:10.894Z,21.40
2023-01-01T10:48:18.027Z,20.40
2023-01-01T10:53:23.431Z,20.40
2023-01-01T10:58:27.386Z,21.40
2023-01-01T11:03:30.146Z,20.60
2023-01-01T11:08:35.382Z,20.80
2023-01-01T11:13:38.149Z,18.40
2023-01-01T11:18:40.901Z,19.00
2023-01-01T11:23:45.087Z,17.80
2023-01-01T11:29:00.621Z,15.80
2023-01-01T11:34:03.567Z,19.00
2023-01-01T11:39:27.188Z,17.80
2023-01-01T11:44:35.295Z,15.00
2023-01-01T11:49:38.061Z,14.40
2023-01-01T11:54:42.196Z,14.60
2023-01-01T11:59:46.888Z,14.00
2023-01-01T12:04:51.034Z,13.20
2023-01-01T12:10:01.447Z,12.20
2023-01-01T12:15:06.363Z,14.60
2023-01-01T12:20:12.607Z,12.80
2023-01-01T12:25:17.508Z,12.80
2023-01-01T12:30:22.038Z,12.40
2023-01-01T12:35:41.078Z,9.00
2023-01-01T12:40:48.273Z,8.40
2023-01-01T12:46:02.617Z,9.60
2023-01-01T12:51:07.376Z,11.00
2023-01-01T12:56:22.434Z,10.80
2023-01-01T13:01:32.900Z,9.00
2023-01-01T13:06:39.083Z,8.20
2023-01-01T13:11:45.387Z,9.00
2023-01-01T13:16:49.345Z,9.60
2023-01-01T13:21:52.121Z,9.00
2023-01-01T13:26:56.203Z,10.80
2023-01-01T13:32:08.870Z,9.00
2023-01-01T13:37:30.817Z,8.80
2023-01-01T13:42:52.253Z,9.60
2023-01-01T13:48:06.463Z,9.00
2023-01-01T13:53:33.439Z,8.20
2023-01-01T13:59:10.244Z,8.20
2023-01-01T14:04:18.065Z,9.00
2023-01-01T14:09:20.969Z,7.60
2023-01-01T14:14:28.384Z,7.80
2023-01-01T14:19:31.288Z,7.00
2023-01-01T14:24:34.273Z,8.00
2023-01-01T14:29:38.459Z,8.00
2023-01-01T14:34:41.225Z,7.00
2023-01-01T14:39:44.295Z,7.20
2023-01-01T14:44:50.412Z,7.40
2023-01-01T14:49:54.321Z,7.00
2023-01-01T14:54:57.214Z,7.00
2023-01-01T15:00:02.899Z,7.60
2023-01-01T15:05:19.802Z,7.00
2023-01-01T15:10:22.858Z,7.20
2023-01-01T15:15:39.992Z,7.00
2023-01-01T15:20:42.764Z,7.00
2023-01-01T15:25:45.567Z,8.00
2023-01-01T15:30:54.185Z,7.40
2023-01-01T15:36:02.826Z,5.80
2023-01-01T15:41:27.114Z,6.60
2023-01-01T15:46:32.602Z,7.00
2023-01-01T15:51:44.487Z,4.00
2023-01-01T15:56:47.469Z,4.40
2023-01-01T16:01:51.731Z,4.00
2023-01-01T16:06:55.367Z,7.00
2023-01-01T16:11:59.299Z,5.60
2023-01-01T16:17:03.754Z,6.20
2023-01-01T16:22:06.528Z,4.40
2023-01-01T16:27:09.427Z,5.80
2023-01-01T16:32:17.788Z,7.00
2023-01-01T16:37:22.755Z,6.00
2023-01-01T16:42:26.000Z,4.00
2023-01-01T16:47:30.204Z,6.40
2023-01-01T16:52:33.790Z,4.20
2023-01-01T16:57:37.421Z,5.80
2023-01-01T17:02:41.812Z,8.00
2023-01-01T17:07:44.955Z,5.80
2023-01-01T17:12:47.715Z,4.00
2023-01-01T17:17:51.869Z,6.40
2023-01-01T17:22:54.663Z,5.20
2023-01-01T17:27:57.382Z,5.60
2023-01-01T17:33:01.680Z,5.80
2023-01-01T17:38:04.481Z,6.60
2023-01-01T17:43:07.243Z,5.80
2023-01-01T17:48:11.376Z,5.80
2023-01-01T17:53:14.443Z,4.80
2023-01-01T17:58:17.557Z,6.20
2023-01-01T18:03:22.725Z,5.00
2023-01-01T18:08:25.560Z,5.60
2023-01-01T18:13:28.340Z,6.20
2023-01-01T18:18:32.547Z,5.80
2023-01-01T18:23:35.510Z,6.40
2023-01-01T18:28:38.257Z,6.80
2023-01-01T18:33:42.709Z,7.60
2023-01-01T18:38:48.542Z,7.40
2023-01-01T18:43:51.301Z,5.00
2023-01-01T18:48:59.237Z,5.40
2023-01-01T18:54:02.216Z,5.00
2023-01-01T18:59:13.278Z,7.20
2023-01-01T19:04:19.665Z,6.80
2023-01-01T19:09:23.311Z,7.00
2023-01-01T19:14:27.671Z,7.00
2023-01-01T19:19:34.759Z,8.00
2023-01-01T19:24:37.523Z,5.40
2023-01-01T19:29:41.403Z,5.60
2023-01-01T19:34:45.540Z,7.40
2023-01-01T19:39:50.239Z,5.00
2023-01-01T19:44:54.610Z,6.00
2023-01-01T19:49:58.763Z,5.00
2023-01-01T19:55:01.549Z,5.00
2023-01-01T20:00:04.684Z,5.00
2023-01-01T20:05:16.420Z,6.20
2023-01-01T20:10:19.328Z,7.20
2023-01-01T20:15:22.188Z,4.80
2023-01-01T20:20:26.568Z,4.80
2023-01-01T20:25:29.414Z,5.00
2023-01-01T20:30:32.183Z,4.60
2023-01-01T20:35:53.875Z,4.00
2023-01-01T20:40:56.891Z,6.60
2023-01-01T20:45:59.991Z,3.80
2023-01-01T20:51:04.399Z,5.00
2023-01-01T20:56:07.979Z,5.00
2023-01-01T21:01:10.967Z,4.00
2023-01-01T21:06:21.830Z,4.20
2023-01-01T21:11:27.083Z,3.20
2023-01-01T21:16:32.371Z,4.00
2023-01-01T21:21:42.034Z,3.60
2023-01-01T21:26:44.808Z,6.00
2023-01-01T21:31:47.811Z,3.80
2023-01-01T21:36:52.182Z,4.80
2023-01-01T21:41:55.055Z,4.20
2023-01-01T21:47:01.867Z,4.20
2023-01-01T21:52:10.249Z,5.00
2023-01-01T21:57:15.780Z,4.60
2023-01-01T22:02:32.239Z,4.60
2023-01-01T22:13:01.460Z,4.00
2023-01-01T22:18:24.228Z,4.40
2023-01-01T22:23:36.156Z,4.00
2023-01-01T22:28:41.743Z,3.80
2023-01-01T22:33:46.894Z,3.20
2023-01-01T22:38:51.216Z,4.00
2023-01-01T22:43:54.358Z,3.00
2023-01-01T22:48:59.082Z,4.00
2023-01-01T22:54:03.224Z,4.60
2023-01-01T22:59:06.068Z,4.00
2023-01-01T23:04:08.841Z,3.00
2023-01-01T23:09:13.071Z,4.00
2023-01-01T23:14:38.663Z,4.20
2023-01-01T23:19:41.962Z,4.80
2023-01-01T23:24:46.071Z,3.40
2023-01-01T23:29:49.007Z,3.00
2023-01-01T23:34:52.085Z,3.20
2023-01-01T23:39:56.532Z,3.00
2023-01-01T23:44:59.350Z,4.00
2023-01-01T23:50:02.155Z,3.00
2023-01-01T23:55:07.768Z,3.00
